createdAt,value
2018-01-11T00:01:05.438Z,11.10
2018-01-11T00:03:32.865Z,11.83
2018-01-11T00:06:00.328Z,12.37
2018-01-11T00:08:27.792Z,11.67
2018-01-11T00:10:55.255Z,12.23
2018-01-11T00:13:22.714Z,11.67
2018-01-11T00:15:50.158Z,12.43
2018-01-11T00:18:18.371Z,10.77
2018-01-11T00:20:45.819Z,11.07
2018-01-11T00:23:13.286Z,12.03
2018-01-11T00:25:40.722Z,12.03
2018-01-11T00:28:08.972Z,11.73
2018-01-11T00:30:36.413Z,11.33
2018-01-11T00:33:03.879Z,11.50
2018-01-11T00:35:31.352Z,11.47
2018-01-11T00:37:58.817Z,12.57
2018-01-11T00:40:26.276Z,11.07
2018-01-11T00:42:53.755Z,11.70
2018-01-11T00:45:21.220Z,10.97
2018-01-11T00:47:48.667Z,12.53
2018-01-11T00:50:16.113Z,12.03
2018-01-11T00:52:43.567Z,11.03
2018-01-11T00:55:11.029Z,11.27
2018-01-11T00:57:38.476Z,11.47
2018-01-11T01:00:05.956Z,11.40
2018-01-11T01:02:33.403Z,11.27
2018-01-11T01:05:00.867Z,11.33
2018-01-11T01:07:28.322Z,12.60
2018-01-11T01:09:55.803Z,12.90
2018-01-11T01:12:23.261Z,12.63
2018-01-11T01:14:50.710Z,11.37
2018-01-11T01:17:18.179Z,11.97
2018-01-11T01:19:45.651Z,12.17
2018-01-11T01:22:13.120Z,11.77
2018-01-11T01:24:40.565Z,10.50
2018-01-11T01:27:08.011Z,12.30
2018-01-11T01:29:36.242Z,11.53
2018-01-11T01:32:03.705Z,12.93
2018-01-11T01:34:31.184Z,12.03
2018-01-11T01:36:58.634Z,12.10
2018-01-11T01:39:26.095Z,12.63
2018-01-11T01:41:53.546Z,13.03
2018-01-11T01:44:21.759Z,13.47
2018-01-11T01:46:49.206Z,11.60
2018-01-11T01:49:16.663Z,14.47
2018-01-11T01:51:44.881Z,13.00
2018-01-11T01:54:13.094Z,13.47
2018-01-11T01:56:40.549Z,13.27
2018-01-11T01:59:08.016Z,13.00
2018-01-11T02:01:35.486Z,12.83
2018-01-11T02:04:02.943Z,15.23
2018-01-11T02:06:30.398Z,12.50
2018-01-11T02:08:57.944Z,14.83
2018-01-11T02:11:26.172Z,14.43
2018-01-11T02:13:53.635Z,13.23
2018-01-11T02:16:21.098Z,12.50
2018-01-11T02:18:48.546Z,14.07
2018-01-11T02:21:15.997Z,13.13
2018-01-11T02:23:43.473Z,13.57
2018-01-11T02:26:10.924Z,14.57
2018-01-11T02:28:38.378Z,15.30
2018-01-11T02:31:05.841Z,14.47
2018-01-11T02:33:33.285Z,14.47
2018-01-11T02:36:01.522Z,15.43
2018-01-11T02:38:28.974Z,15.23
2018-01-11T02:40:56.441Z,15.50
2018-01-11T02:43:23.881Z,15.57
2018-01-11T02:45:51.350Z,14.97
2018-01-11T02:48:18.786Z,17.10
2018-01-11T02:50:46.274Z,15.40
2018-01-11T02:53:13.732Z,14.70
2018-01-11T02:55:41.191Z,16.23
2018-01-11T02:58:08.640Z,15.40
2018-01-11T03:00:36.864Z,15.57
2018-01-11T03:03:04.335Z,15.80
2018-01-11T03:05:31.792Z,14.27
2018-01-11T03:07:59.252Z,16.53
2018-01-11T03:10:26.702Z,14.57
2018-01-11T03:12:54.147Z,15.30
2018-01-11T03:15:21.621Z,13.53
2018-01-11T03:17:49.077Z,13.87
2018-01-11T03:20:16.532Z,14.57
2018-01-11T03:22:43.995Z,15.70
2018-01-11T03:25:11.458Z,13.40
2018-01-11T03:27:38.938Z,15.67
2018-01-11T03:30:06.406Z,15.53
2018-01-11T03:32:33.858Z,15.70
2018-01-11T03:35:01.322Z,13.90
2018-01-11T03:37:28.762Z,14.73
2018-01-11T03:39:56.427Z,14.90
2018-01-11T03:42:23.922Z,14.63
2018-01-11T03:44:51.391Z,15.57
2018-01-11T03:47:18.840Z,15.17
2018-01-11T03:49:46.297Z,15.80
2018-01-11T03:52:13.742Z,15.07
2018-01-11T03:54:41.201Z,14.13
2018-01-11T03:57:09.440Z,14.23
2018-01-11T03:59:36.907Z,14.13
2018-01-11T04:02:04.354Z,14.93
2018-01-11T04:04:31.818Z,14.40
2018-01-11T04:07:00.054Z,14.07
2018-01-11T04:09:27.501Z,13.87
2018-01-11T04:11:55.726Z,14.60
2018-01-11T04:14:23.175Z,14.10
2018-01-11T04:16:50.637Z,15.27
2018-01-11T04:19:18.101Z,15.47
2018-01-11T04:21:45.623Z,13.57
2018-01-11T04:24:13.006Z,13.83
2018-01-11T04:26:41.236Z,15.47
2018-01-11T04:29:08.712Z,13.30
2018-01-11T04:31:36.178Z,12.57
2018-01-11T04:34:03.641Z,14.03
2018-01-11T04:36:31.112Z,12.13
2018-01-11T04:38:58.555Z,13.27
2018-01-11T04:41:26.017Z,13.50
2018-01-11T04:43:53.474Z,15.33
2018-01-11T04:46:20.938Z,13.73
2018-01-11T04:48:48.398Z,14.23
2018-01-11T04:51:16.621Z,15.27
2018-01-11T04:53:44.829Z,13.83
2018-01-11T04:56:12.307Z,13.93
2018-01-11T04:58:39.764Z,15.00
2018-01-11T05:01:07.207Z,13.03
2018-01-11T05:03:34.664Z,14.47
2018-01-11T05:06:02.114Z,14.67
2018-01-11T05:08:30.354Z,13.00
2018-01-11T05:10:57.821Z,14.23
2018-01-11T05:13:25.274Z,12.83
2018-01-11T05:15:52.713Z,14.20
2018-01-11T05:18:20.163Z,14.00
2018-01-11T05:20:47.614Z,14.47
2018-01-11T05:23:15.847Z,14.00
2018-01-11T05:25:43.298Z,13.87
2018-01-11T05:28:10.768Z,13.07
2018-01-11T05:30:38.218Z,13.37
2018-01-11T05:33:05.692Z,13.53
2018-01-11T05:35:33.139Z,14.83
2018-01-11T05:38:00.602Z,13.33
2018-01-11T05:40:28.059Z,13.53
2018-01-11T05:42:55.543Z,12.73
2018-01-11T05:45:22.974Z,13.13
2018-01-11T05:47:50.437Z,14.10
2018-01-11T05:50:17.907Z,15.07
2018-01-11T05:52:45.355Z,14.13
2018-01-11T05:55:12.813Z,13.57
2018-01-11T05:57:41.323Z,13.50
2018-01-11T06:00:08.770Z,13.03
2018-01-11T06:02:36.434Z,14.20
2018-01-11T06:05:03.883Z,13.67
2018-01-11T06:07:31.562Z,13.23
2018-01-11T06:09:59.026Z,13.27
2018-01-11T06:12:26.489Z,14.13
2018-01-11T06:14:54.693Z,14.77
2018-01-11T06:17:22.156Z,14.50
2018-01-11T06:19:49.603Z,13.53
2018-01-11T06:22:17.067Z,17.25
2018-01-11T06:24:44.495Z,14.60
2018-01-11T06:27:12.705Z,14.47
2018-01-11T06:29:40.150Z,14.57
2018-01-11T06:32:08.354Z,15.63
2018-01-11T06:34:35.796Z,14.87
2018-01-11T06:37:04.544Z,15.47
2018-01-11T06:39:32.753Z,13.63
2018-01-11T06:42:00.958Z,15.57
2018-01-11T06:44:28.397Z,14.73
2018-01-11T06:46:56.603Z,15.17
2018-01-11T06:49:24.050Z,13.47
2018-01-11T06:51:51.503Z,15.10
2018-01-11T06:54:19.703Z,16.50
2018-01-11T06:56:47.176Z,12.83
2018-01-11T06:59:14.637Z,15.23
2018-01-11T07:01:42.069Z,13.47
2018-01-11T07:04:10.291Z,14.43
2018-01-11T07:06:37.739Z,14.63
2018-01-11T07:09:05.179Z,15.50
2018-01-11T07:11:33.389Z,14.03
2018-01-11T07:14:00.835Z,15.97
2018-01-11T07:16:28.286Z,15.23
2018-01-11T07:18:56.482Z,14.43
2018-01-11T07:21:23.926Z,15.33
2018-01-11T07:23:52.139Z,15.57
2018-01-11T07:26:19.574Z,14.63
2018-01-11T07:28:47.780Z,15.27
2018-01-11T07:31:15.218Z,15.33
2018-01-11T07:33:42.649Z,16.03
2018-01-11T07:36:10.107Z,17.50
2018-01-11T07:38:37.534Z,14.70
2018-01-11T07:41:04.984Z,16.80
2018-01-11T07:43:32.427Z,19.00
2018-01-11T07:46:00.629Z,16.73
2018-01-11T07:48:28.057Z,15.23
2018-01-11T07:50:56.279Z,18.00
2018-01-11T07:53:23.725Z,19.67
2018-01-11T07:55:51.179Z,16.67
2018-01-11T07:58:18.634Z,16.13
2018-01-11T08:00:46.841Z,17.40
2018-01-11T08:03:14.277Z,18.47
2018-01-11T08:05:41.735Z,17.40
2018-01-11T08:08:09.951Z,18.60
2018-01-11T08:10:37.392Z,17.43
2018-01-11T08:13:04.837Z,18.33
2018-01-11T08:15:33.043Z,17.33
2018-01-11T08:18:00.488Z,16.23
2018-01-11T08:20:28.690Z,17.17
2018-01-11T08:22:56.113Z,17.87
2018-01-11T08:25:24.323Z,16.97
2018-01-11T08:27:51.780Z,17.43
2018-01-11T08:30:19.226Z,17.90
2018-01-11T08:32:47.428Z,19.83
2018-01-11T08:35:14.866Z,17.50
2018-01-11T08:37:43.083Z,19.27
2018-01-11T08:40:10.536Z,20.50
2018-01-11T08:42:37.978Z,17.77
2018-01-11T08:45:05.431Z,22.53
2018-01-11T08:47:33.659Z,22.17
2018-01-11T08:50:01.099Z,23.00
2018-01-11T08:52:28.541Z,24.47
2018-01-11T08:54:56.751Z,22.43
2018-01-11T08:57:24.204Z,25.50
2018-01-11T08:59:51.630Z,20.47
2018-01-11T09:02:19.840Z,21.90
2018-01-11T09:04:47.273Z,20.93
2018-01-11T09:07:15.487Z,22.13
2018-01-11T09:09:42.935Z,24.17
2018-01-11T09:12:11.139Z,24.13
2018-01-11T09:14:38.579Z,21.40
2018-01-11T09:17:06.038Z,20.13
2018-01-11T09:19:34.238Z,23.43
2018-01-11T09:22:01.675Z,25.63
2018-01-11T09:24:29.891Z,25.23
2018-01-11T09:26:57.354Z,23.40
2018-01-11T09:29:24.796Z,26.80
2018-01-11T09:31:52.225Z,24.57
2018-01-11T09:34:19.666Z,24.40
2018-01-11T09:36:47.106Z,24.87
2018-01-11T09:39:14.548Z,26.53
2018-01-11T09:41:41.982Z,25.63
2018-01-11T09:44:10.196Z,23.60
2018-01-11T09:46:37.631Z,25.63
2018-01-11T09:49:05.919Z,25.90
2018-01-11T09:51:34.116Z,25.17
2018-01-11T09:54:01.551Z,22.97
2018-01-11T09:56:29.764Z,24.07
2018-01-11T09:58:57.210Z,22.90
2018-01-11T10:01:24.646Z,25.23
2018-01-11T10:03:52.092Z,25.33
2018-01-11T10:06:19.522Z,24.27
2018-01-11T10:08:46.986Z,24.17
2018-01-11T10:11:14.422Z,24.17
2018-01-11T10:13:41.881Z,26.70
2018-01-11T10:16:10.074Z,25.43
2018-01-11T10:18:37.514Z,27.30
2018-01-11T10:21:05.726Z,26.50
2018-01-11T10:23:33.166Z,25.90
2018-01-11T10:26:00.619Z,24.10
2018-01-11T10:28:28.836Z,24.97
2018-01-11T10:30:56.286Z,23.27
2018-01-11T10:33:23.747Z,25.80
2018-01-11T10:35:51.178Z,28.37
2018-01-11T10:38:19.390Z,28.83
2018-01-11T10:40:46.817Z,26.73
2018-01-11T10:43:15.030Z,27.50
2018-01-11T10:45:42.496Z,29.07
2018-01-11T10:48:09.936Z,28.37
2018-01-11T10:50:38.141Z,27.43
2018-01-11T10:53:05.592Z,26.80
2018-01-11T10:55:33.020Z,27.50
2018-01-11T10:58:00.450Z,33.73
2018-01-11T11:00:42.776Z,31.20
2018-01-11T11:03:10.214Z,25.97
2018-01-11T11:05:37.658Z,28.80
2018-01-11T11:08:05.126Z,29.10
2018-01-11T11:10:32.546Z,29.60
2018-01-11T11:13:00.758Z,28.67
2018-01-11T11:15:28.214Z,30.00
2018-01-11T11:17:55.637Z,31.23
2018-01-11T11:20:23.083Z,30.70
2018-01-11T11:22:50.528Z,30.33
2018-01-11T11:25:17.982Z,32.43
2018-01-11T11:27:45.432Z,33.47
2018-01-11T11:30:12.850Z,30.43
2018-01-11T11:32:41.058Z,29.90
2018-01-11T11:35:08.511Z,29.60
2018-01-11T11:37:36.706Z,30.17
2018-01-11T11:40:04.137Z,34.20
2018-01-11T11:42:32.357Z,31.13
2018-01-11T11:44:59.777Z,34.20
2018-01-11T11:47:28.003Z,37.33
2018-01-11T11:49:55.455Z,32.17
2018-01-11T11:52:22.899Z,32.00
2018-01-11T11:54:51.097Z,35.53
2018-01-11T11:57:18.540Z,29.40
2018-01-11T11:59:46.747Z,30.33
2018-01-11T12:04:47.592Z,32.23
2018-01-11T12:07:15.029Z,33.33
2018-01-11T12:09:43.242Z,32.83
2018-01-11T12:12:10.678Z,31.37
2018-01-11T12:14:38.890Z,33.23
2018-01-11T12:17:06.326Z,36.27
2018-01-11T12:19:33.780Z,36.83
2018-01-11T12:22:01.995Z,33.57
2018-01-11T12:24:29.454Z,33.93
2018-01-11T12:26:56.894Z,37.90
2018-01-11T12:29:25.108Z,37.57
2018-01-11T12:31:52.553Z,39.60
2018-01-11T12:34:19.983Z,41.07
2018-01-11T12:36:47.422Z,36.87
2018-01-11T12:39:14.857Z,35.90
2018-01-11T12:41:42.302Z,38.50
2018-01-11T12:44:09.735Z,39.37
2018-01-11T12:46:37.936Z,40.03
2018-01-11T12:49:05.378Z,40.17
2018-01-11T12:51:33.591Z,42.70
2018-01-11T12:54:01.018Z,46.30
2018-01-11T12:56:29.227Z,50.60
2018-01-11T12:58:56.654Z,40.27
2018-01-11T13:01:24.087Z,42.07
2018-01-11T13:03:51.530Z,61.33
2018-01-11T13:06:18.980Z,44.70
2018-01-11T13:08:46.413Z,42.67
2018-01-11T13:11:14.617Z,47.43
2018-01-11T13:13:42.067Z,41.73
2018-01-11T13:16:09.493Z,47.70
2018-01-11T13:18:36.955Z,55.70
2018-01-11T13:21:04.396Z,51.80
2018-01-11T13:23:31.839Z,53.73
2018-01-11T13:25:59.300Z,56.53
2018-01-11T13:28:26.743Z,51.73
2018-01-11T13:30:54.183Z,60.40
2018-01-11T13:33:21.622Z,46.47
2018-01-11T13:35:49.076Z,58.30
2018-01-11T13:38:16.510Z,49.70
2018-01-11T13:40:43.945Z,53.97
2018-01-11T13:43:12.154Z,48.60
2018-01-11T13:45:39.607Z,53.00
2018-01-11T13:48:07.051Z,52.03
2018-01-11T13:50:35.253Z,50.93
2018-01-11T13:53:02.732Z,56.03
2018-01-11T13:55:30.146Z,53.57
2018-01-11T13:57:58.363Z,49.83
2018-01-11T14:00:25.790Z,55.20
2018-01-11T14:02:54.013Z,47.73
2018-01-11T14:05:21.448Z,50.77
2018-01-11T14:07:48.896Z,49.23
2018-01-11T14:10:17.120Z,58.93
2018-01-11T14:12:44.563Z,54.43
2018-01-11T14:15:11.989Z,67.63
2018-01-11T14:17:40.217Z,53.20
2018-01-11T14:20:07.695Z,49.67
2018-01-11T14:22:35.906Z,55.20
2018-01-11T14:25:03.342Z,48.93
2018-01-11T14:27:31.572Z,52.10
2018-01-11T14:29:59.774Z,51.80
2018-01-11T14:32:27.215Z,50.90
2018-01-11T14:34:55.422Z,58.70
2018-01-11T14:37:22.880Z,52.97
2018-01-11T14:39:50.314Z,54.67
2018-01-11T14:42:18.524Z,50.23
2018-01-11T14:44:45.969Z,50.97
2018-01-11T14:47:13.409Z,49.57
2018-01-11T14:49:40.859Z,55.60
2018-01-11T14:52:08.340Z,53.87
2018-01-11T14:54:36.545Z,49.30
2018-01-11T14:57:03.967Z,46.07
2018-01-11T14:59:31.411Z,50.27
2018-01-11T15:01:58.845Z,45.33
2018-01-11T15:04:26.296Z,47.13
2018-01-11T15:06:53.725Z,48.00
2018-01-11T15:09:21.937Z,48.93
2018-01-11T15:11:49.396Z,46.33
2018-01-11T15:14:17.596Z,44.27
2018-01-11T15:16:45.032Z,45.03
2018-01-11T15:19:12.474Z,47.87
2018-01-11T15:21:40.683Z,47.80
2018-01-11T15:24:08.145Z,54.93
2018-01-11T15:26:35.581Z,51.57
2018-01-11T15:29:03.793Z,45.73
2018-01-11T15:31:31.235Z,46.67
2018-01-11T15:33:59.440Z,40.17
2018-01-11T15:36:27.719Z,46.87
2018-01-11T15:38:55.184Z,46.83
2018-01-11T15:41:22.631Z,40.40
2018-01-11T15:43:50.078Z,44.20
2018-01-11T15:46:18.297Z,45.90
2018-01-11T15:48:45.756Z,44.83
2018-01-11T15:51:13.235Z,47.43
2018-01-11T15:53:40.808Z,43.37
2018-01-11T15:56:08.263Z,46.37
2018-01-11T15:58:35.726Z,42.30
2018-01-11T16:01:03.189Z,36.60
2018-01-11T16:03:30.642Z,38.87
2018-01-11T16:05:58.109Z,40.37
2018-01-11T16:08:25.584Z,39.30
2018-01-11T16:10:53.811Z,41.03
2018-01-11T16:13:22.033Z,43.03
2018-01-11T16:15:49.498Z,38.70
2018-01-11T16:18:16.959Z,38.93
2018-01-11T16:20:44.430Z,40.67
2018-01-11T16:23:11.890Z,34.50
2018-01-11T16:25:39.364Z,37.87
2018-01-11T16:28:06.813Z,39.00
2018-01-11T16:30:34.271Z,38.63
2018-01-11T16:33:01.732Z,34.57
2018-01-11T16:35:29.181Z,34.77
2018-01-11T16:37:56.648Z,37.27
2018-01-11T16:40:24.099Z,37.50
2018-01-11T16:42:51.652Z,33.10
2018-01-11T16:45:19.111Z,37.83
2018-01-11T16:47:46.569Z,36.43
2018-01-11T16:50:14.787Z,35.90
2018-01-11T16:52:42.255Z,39.70
2018-01-11T16:55:09.695Z,37.53
2018-01-11T16:57:37.160Z,35.57
2018-01-11T17:00:05.375Z,33.20
2018-01-11T17:02:32.867Z,35.43
2018-01-11T17:05:00.283Z,35.07
2018-01-11T17:07:27.747Z,34.50
2018-01-11T17:09:55.197Z,33.37
2018-01-11T17:12:22.655Z,39.93
2018-01-11T17:14:50.112Z,36.20
2018-01-11T17:17:17.574Z,39.13
2018-01-11T17:19:45.033Z,35.47
2018-01-11T17:22:13.259Z,37.93
2018-01-11T17:24:40.702Z,37.37
2018-01-11T17:27:08.149Z,36.47
2018-01-11T17:29:35.619Z,36.60
2018-01-11T17:32:03.081Z,38.30
2018-01-11T17:34:30.529Z,37.77
2018-01-11T17:36:57.998Z,35.60
2018-01-11T17:39:25.459Z,37.13
2018-01-11T17:41:52.921Z,38.93
2018-01-11T17:44:20.395Z,36.47
2018-01-11T17:46:47.854Z,40.10
2018-01-11T17:49:15.344Z,42.70
2018-01-11T17:51:43.564Z,35.70
2018-01-11T17:54:11.788Z,38.83
2018-01-11T17:56:39.254Z,36.87
2018-01-11T17:59:06.711Z,39.60
2018-01-11T18:01:34.182Z,37.53
2018-01-11T18:04:01.634Z,32.37
2018-01-11T18:06:29.097Z,38.47
2018-01-11T18:08:56.581Z,39.13
2018-01-11T18:11:24.113Z,35.27
2018-01-11T18:13:51.591Z,37.87
2018-01-11T18:16:19.063Z,37.77
2018-01-11T18:18:46.529Z,36.33
2018-01-11T18:21:14.031Z,38.03
2018-01-11T18:23:42.262Z,31.50
2018-01-11T18:26:09.756Z,39.33
2018-01-11T18:28:37.198Z,36.23
2018-01-11T18:31:05.556Z,36.23
2018-01-11T18:33:33.000Z,42.10
2018-01-11T18:36:01.241Z,39.33
2018-01-11T18:38:29.472Z,41.40
2018-01-11T18:40:56.913Z,35.47
2018-01-11T18:43:25.119Z,38.53
2018-01-11T18:45:52.595Z,35.87
2018-01-11T18:48:20.059Z,35.13
2018-01-11T18:50:47.511Z,33.87
2018-01-11T18:53:14.972Z,37.73
2018-01-11T18:55:42.444Z,39.83
2018-01-11T18:58:09.894Z,38.37
2018-01-11T19:00:37.355Z,36.53
2018-01-11T19:03:04.816Z,35.57
2018-01-11T19:05:32.285Z,40.50
2018-01-11T19:07:59.757Z,37.27
2018-01-11T19:10:28.767Z,39.40
2018-01-11T19:12:56.201Z,37.30
2018-01-11T19:15:23.651Z,39.23
2018-01-11T19:17:51.134Z,41.53
2018-01-11T19:20:18.596Z,37.90
2018-01-11T19:22:46.051Z,39.73
2018-01-11T19:25:13.507Z,39.30
2018-01-11T19:27:41.736Z,38.60
2018-01-11T19:30:09.174Z,39.23
2018-01-11T19:32:36.605Z,37.77
2018-01-11T19:35:04.083Z,38.87
2018-01-11T19:37:31.560Z,36.33
2018-01-11T19:39:59.011Z,47.37
2018-01-11T19:42:26.471Z,37.93
2018-01-11T19:44:53.917Z,40.57
2018-01-11T19:47:22.146Z,38.07
2018-01-11T19:49:50.374Z,39.40
2018-01-11T19:52:18.586Z,39.47
2018-01-11T19:54:46.041Z,38.07
2018-01-11T19:57:13.492Z,38.17
2018-01-11T19:59:40.973Z,38.17
2018-01-11T20:02:08.425Z,39.83
2018-01-11T20:04:35.895Z,43.27
2018-01-11T20:07:03.343Z,41.87
2018-01-11T20:09:30.807Z,38.37
2018-01-11T20:11:58.277Z,38.63
2018-01-11T20:14:25.737Z,40.27
2018-01-11T20:16:53.189Z,38.57
2018-01-11T20:19:20.645Z,39.53
2018-01-11T20:21:48.867Z,37.57
2018-01-11T20:24:16.324Z,38.70
2018-01-11T20:26:43.771Z,38.67
2018-01-11T20:29:11.231Z,41.30
2018-01-11T20:31:38.655Z,41.13
2018-01-11T20:34:06.144Z,44.53
2018-01-11T20:36:33.612Z,39.37
2018-01-11T20:39:01.066Z,42.37
2018-01-11T20:41:28.569Z,40.20
2018-01-11T20:43:56.762Z,38.97
2018-01-11T20:46:24.207Z,39.03
2018-01-11T20:48:51.665Z,42.33
2018-01-11T20:51:19.126Z,39.67
2018-01-11T20:53:46.586Z,40.70
2018-01-11T20:56:14.043Z,39.97
2018-01-11T20:58:41.482Z,37.87
2018-01-11T21:01:09.725Z,41.00
2018-01-11T21:03:37.163Z,39.90
2018-01-11T21:06:05.383Z,36.57
2018-01-11T21:08:32.829Z,37.60
2018-01-11T21:11:00.323Z,37.70
2018-01-11T21:13:28.537Z,39.47
2018-01-11T21:15:56.012Z,37.90
2018-01-11T21:18:23.468Z,36.67
2018-01-11T21:20:50.910Z,35.37
2018-01-11T21:23:18.384Z,38.57
2018-01-11T21:25:45.842Z,37.10
2018-01-11T21:28:13.304Z,39.43
2018-01-11T21:30:40.753Z,38.40
2018-01-11T21:33:08.207Z,38.30
2018-01-11T21:35:36.426Z,37.53
2018-01-11T21:38:03.862Z,37.33
2018-01-11T21:40:31.310Z,38.63
2018-01-11T21:42:59.531Z,37.07
2018-01-11T21:45:26.987Z,40.13
2018-01-11T21:47:54.459Z,37.00
2018-01-11T21:50:21.920Z,40.53
2018-01-11T21:52:49.365Z,36.63
2018-01-11T21:55:16.820Z,34.57
2018-01-11T21:57:44.274Z,36.30
2018-01-11T22:00:11.723Z,36.07
2018-01-11T22:02:39.935Z,33.00
2018-01-11T22:05:07.394Z,36.03
2018-01-11T22:07:34.834Z,30.43
2018-01-11T22:10:03.074Z,35.33
2018-01-11T22:12:30.528Z,35.80
2018-01-11T22:14:57.979Z,33.27
2018-01-11T22:17:25.430Z,34.53
2018-01-11T22:19:52.882Z,38.70
2018-01-11T22:22:20.334Z,31.87
2018-01-11T22:24:47.778Z,39.13
2018-01-11T22:27:16.001Z,34.13
2018-01-11T22:29:43.452Z,35.17
2018-01-11T22:32:10.909Z,36.37
2018-01-11T22:34:38.350Z,37.50
2018-01-11T22:37:06.557Z,33.83
2018-01-11T22:39:34.057Z,38.20
2018-01-11T22:42:01.487Z,41.90
2018-01-11T22:44:28.942Z,36.53
2018-01-11T22:46:56.398Z,37.60
2018-01-11T22:49:24.615Z,37.07
2018-01-11T22:51:52.057Z,32.40
2018-01-11T22:54:19.491Z,35.67
2018-01-11T22:56:47.710Z,35.43
2018-01-11T22:59:15.156Z,40.90
2018-01-11T23:01:42.610Z,34.33
2018-01-11T23:04:10.056Z,40.37
2018-01-11T23:06:38.278Z,34.70
2018-01-11T23:09:05.718Z,39.70
2018-01-11T23:11:38.890Z,34.80
2018-01-11T23:14:07.118Z,40.87
2018-01-11T23:16:34.560Z,37.57
2018-01-11T23:19:02.017Z,39.13
2018-01-11T23:21:29.471Z,34.63
2018-01-11T23:23:56.917Z,37.80
2018-01-11T23:26:25.119Z,38.40
2018-01-11T23:28:52.573Z,37.00
2018-01-11T23:31:20.052Z,37.77
2018-01-11T23:33:47.502Z,36.33
2018-01-11T23:36:14.956Z,40.83
2018-01-11T23:38:43.169Z,37.30
2018-01-11T23:41:10.622Z,35.10
2018-01-11T23:43:38.082Z,36.33
2018-01-11T23:46:05.546Z,35.70
2018-01-11T23:48:33.008Z,35.00
2018-01-11T23:51:00.474Z,35.33
2018-01-11T23:53:27.936Z,35.03
2018-01-11T23:55:55.408Z,37.50
2018-01-11T23:58:22.863Z,35.77
